Terminal Aerodrome Forecast
Issued by NWS Duluth, MN

Home | Current Version | Previous Version | Text Only | Print | Product List | Glossary On
Versions: 1 2 3 4 5 6 7 8 9 10 11 12 13 14 15 16 17 18 19 20 21 22 23 24 25 26 27 28 29
000
FTUS43 KDLH 241724
TAFDLH
TAF
KDLH 241724Z 2418/2518 10020G30KT P6SM BKN120
     FM242200 11015G23KT P6SM SCT050 BKN100
     FM250300 10011KT P6SM -RA SCT025 OVC040
     FM250600 13007KT 4SM -RA BR SCT012 OVC020
     FM251000 VRB06KT 2SM BR BKN008 OVC012=

USA.gov is the U.S. government's official web portal to all federal, state and local government web resources and services.